sensor_id;sensor_type;location;lat;lon;timestamp;temperature;humidity
41630;DHT22;27322;49.488;8.480;2023-11-21T00:02:20;10.90;99.90
41630;DHT22;27322;49.488;8.480;2023-11-21T00:04:47;10.90;99.90
41630;DHT22;27322;49.488;8.480;2023-11-21T00:07:13;10.90;99.90
41630;DHT22;27322;49.488;8.480;2023-11-21T00:09:40;10.90;99.90
41630;DHT22;27322;49.488;8.480;2023-11-21T00:12:05;10.90;99.90
41630;DHT22;27322;49.488;8.480;2023-11-21T00:14:31;10.90;99.90
41630;DHT22;27322;49.488;8.480;2023-11-21T00:16:56;10.90;99.90
41630;DHT22;27322;49.488;8.480;2023-11-21T00:19:22;10.90;99.90
41630;DHT22;27322;49.488;8.480;2023-11-21T00:21:48;10.90;99.90
41630;DHT22;27322;49.488;8.480;2023-11-21T00:24:13;10.90;99.90
41630;DHT22;27322;49.488;8.480;2023-11-21T00:26:40;10.90;99.90
41630;DHT22;27322;49.488;8.480;2023-11-21T00:29:05;10.90;99.90
41630;DHT22;27322;49.488;8.480;2023-11-21T00:31:36;10.90;99.90
41630;DHT22;27322;49.488;8.480;2023-11-21T00:34:05;10.90;99.90
41630;DHT22;27322;49.488;8.480;2023-11-21T00:36:31;10.90;99.90
41630;DHT22;27322;49.488;8.480;2023-11-21T00:38:58;10.90;99.90
41630;DHT22;27322;49.488;8.480;2023-11-21T00:41:23;10.90;99.90
41630;DHT22;27322;49.488;8.480;2023-11-21T00:43:49;10.90;99.90
41630;DHT22;27322;49.488;8.480;2023-11-21T00:46:14;10.90;99.90
41630;DHT22;27322;49.488;8.480;2023-11-21T00:48:40;10.90;99.90
41630;DHT22;27322;49.488;8.480;2023-11-21T00:51:06;10.90;99.90
41630;DHT22;27322;49.488;8.480;2023-11-21T00:53:31;10.90;99.90
41630;DHT22;27322;49.488;8.480;2023-11-21T00:55:57;10.90;99.90
41630;DHT22;27322;49.488;8.480;2023-11-21T00:58:26;10.90;99.90
41630;DHT22;27322;49.488;8.480;2023-11-21T01:00:52;10.90;99.90
41630;DHT22;27322;49.488;8.480;2023-11-21T01:03:18;10.90;99.90
41630;DHT22;27322;49.488;8.480;2023-11-21T01:05:44;10.80;99.90
41630;DHT22;27322;49.488;8.480;2023-11-21T01:08:10;10.90;99.90
41630;DHT22;27322;49.488;8.480;2023-11-21T01:10:36;10.90;99.90
41630;DHT22;27322;49.488;8.480;2023-11-21T01:13:02;10.90;99.90
41630;DHT22;27322;49.488;8.480;2023-11-21T01:15:31;10.90;99.90
41630;DHT22;27322;49.488;8.480;2023-11-21T01:17:56;10.90;99.90
41630;DHT22;27322;49.488;8.480;2023-11-21T01:20:22;10.90;99.90
41630;DHT22;27322;49.488;8.480;2023-11-21T01:22:48;10.90;99.90
41630;DHT22;27322;49.488;8.480;2023-11-21T01:25:14;10.90;99.90
41630;DHT22;27322;49.488;8.480;2023-11-21T01:27:41;10.90;99.90
41630;DHT22;27322;49.488;8.480;2023-11-21T01:30:07;10.90;99.90
41630;DHT22;27322;49.488;8.480;2023-11-21T01:32:36;10.90;99.90
41630;DHT22;27322;49.488;8.480;2023-11-21T01:35:01;10.90;99.90
41630;DHT22;27322;49.488;8.480;2023-11-21T01:37:27;10.90;99.90
41630;DHT22;27322;49.488;8.480;2023-11-21T01:39:54;10.90;99.90
41630;DHT22;27322;49.488;8.480;2023-11-21T01:42:20;10.90;99.90
41630;DHT22;27322;49.488;8.480;2023-11-21T01:44:46;10.90;99.90
41630;DHT22;27322;49.488;8.480;2023-11-21T01:47:13;10.90;99.90
41630;DHT22;27322;49.488;8.480;2023-11-21T01:49:39;10.90;99.90
41630;DHT22;27322;49.488;8.480;2023-11-21T01:52:05;10.90;99.90
41630;DHT22;27322;49.488;8.480;2023-11-21T01:54:32;10.90;99.90
41630;DHT22;27322;49.488;8.480;2023-11-21T01:56:58;10.90;99.90
41630;DHT22;27322;49.488;8.480;2023-11-21T01:59:35;10.90;99.90
41630;DHT22;27322;49.488;8.480;2023-11-21T02:02:03;10.90;99.90
41630;DHT22;27322;49.488;8.480;2023-11-21T02:04:31;10.90;99.90
41630;DHT22;27322;49.488;8.480;2023-11-21T02:06:57;10.90;99.90
41630;DHT22;27322;49.488;8.480;2023-11-21T02:09:28;10.90;99.90
41630;DHT22;27322;49.488;8.480;2023-11-21T02:11:56;10.90;99.90
41630;DHT22;27322;49.488;8.480;2023-11-21T02:14:22;10.90;99.90
41630;DHT22;27322;49.488;8.480;2023-11-21T02:16:50;10.90;99.90
41630;DHT22;27322;49.488;8.480;2023-11-21T02:19:18;10.90;99.90
41630;DHT22;27322;49.488;8.480;2023-11-21T02:21:51;10.90;99.90
41630;DHT22;27322;49.488;8.480;2023-11-21T02:24:19;10.90;99.90
41630;DHT22;27322;49.488;8.480;2023-11-21T02:26:45;10.90;99.90
41630;DHT22;27322;49.488;8.480;2023-11-21T02:29:11;10.90;99.90
41630;DHT22;27322;49.488;8.480;2023-11-21T02:31:41;10.90;99.90
41630;DHT22;27322;49.488;8.480;2023-11-21T02:34:16;10.90;99.90
41630;DHT22;27322;49.488;8.480;2023-11-21T02:36:45;10.90;99.90
41630;DHT22;27322;49.488;8.480;2023-11-21T02:39:11;10.90;99.90
41630;DHT22;27322;49.488;8.480;2023-11-21T02:41:39;10.90;99.90
41630;DHT22;27322;49.488;8.480;2023-11-21T02:44:08;10.90;99.90
41630;DHT22;27322;49.488;8.480;2023-11-21T02:46:35;10.90;99.90
41630;DHT22;27322;49.488;8.480;2023-11-21T02:49:05;10.90;99.90
41630;DHT22;27322;49.488;8.480;2023-11-21T02:51:36;10.90;99.90
41630;DHT22;27322;49.488;8.480;2023-11-21T02:54:02;10.90;99.90
41630;DHT22;27322;49.488;8.480;2023-11-21T02:56:30;10.90;99.90
41630;DHT22;27322;49.488;8.480;2023-11-21T02:58:56;10.90;99.90
41630;DHT22;27322;49.488;8.480;2023-11-21T03:01:22;10.90;99.90
41630;DHT22;27322;49.488;8.480;2023-11-21T03:03:49;10.90;99.90
41630;DHT22;27322;49.488;8.480;2023-11-21T03:06:17;10.90;99.90
41630;DHT22;27322;49.488;8.480;2023-11-21T03:08:45;10.90;99.90
41630;DHT22;27322;49.488;8.480;2023-11-21T03:11:11;10.90;99.90
41630;DHT22;27322;49.488;8.480;2023-11-21T03:13:36;10.90;99.90
41630;DHT22;27322;49.488;8.480;2023-11-21T03:16:02;10.90;99.90
41630;DHT22;27322;49.488;8.480;2023-11-21T03:18:28;10.90;99.90
41630;DHT22;27322;49.488;8.480;2023-11-21T03:20:54;10.90;99.90
41630;DHT22;27322;49.488;8.480;2023-11-21T03:23:20;10.90;99.90
41630;DHT22;27322;49.488;8.480;2023-11-21T03:25:45;10.90;99.90
41630;DHT22;27322;49.488;8.480;2023-11-21T03:28:11;10.90;99.90
41630;DHT22;27322;49.488;8.480;2023-11-21T03:30:37;10.90;99.90
41630;DHT22;27322;49.488;8.480;2023-11-21T03:33:02;10.90;99.90
41630;DHT22;27322;49.488;8.480;2023-11-21T03:35:28;10.90;99.90
41630;DHT22;27322;49.488;8.480;2023-11-21T03:37:53;10.90;99.90
41630;DHT22;27322;49.488;8.480;2023-11-21T03:40:19;10.90;99.90
41630;DHT22;27322;49.488;8.480;2023-11-21T03:42:46;10.90;99.90
41630;DHT22;27322;49.488;8.480;2023-11-21T03:45:12;10.90;99.90
41630;DHT22;27322;49.488;8.480;2023-11-21T03:47:38;10.90;99.90
41630;DHT22;27322;49.488;8.480;2023-11-21T03:50:04;10.90;99.90
41630;DHT22;27322;49.488;8.480;2023-11-21T03:52:30;10.90;99.90
41630;DHT22;27322;49.488;8.480;2023-11-21T03:54:56;10.90;99.90
41630;DHT22;27322;49.488;8.480;2023-11-21T03:57:21;10.90;99.90
41630;DHT22;27322;49.488;8.480;2023-11-21T03:59:47;10.90;99.90
41630;DHT22;27322;49.488;8.480;2023-11-21T04:02:13;10.90;99.90
41630;DHT22;27322;49.488;8.480;2023-11-21T04:04:38;10.90;99.90
41630;DHT22;27322;49.488;8.480;2023-11-21T04:07:05;10.90;99.90
41630;DHT22;27322;49.488;8.480;2023-11-21T04:09:30;10.90;99.90
41630;DHT22;27322;49.488;8.480;2023-11-21T04:11:56;10.90;99.90
41630;DHT22;27322;49.488;8.480;2023-11-21T04:14:22;10.90;99.90
41630;DHT22;27322;49.488;8.480;2023-11-21T04:16:48;10.90;99.90
41630;DHT22;27322;49.488;8.480;2023-11-21T04:19:14;10.90;99.90
41630;DHT22;27322;49.488;8.480;2023-11-21T04:21:41;10.90;99.90
41630;DHT22;27322;49.488;8.480;2023-11-21T04:24:07;10.90;99.90
41630;DHT22;27322;49.488;8.480;2023-11-21T04:26:35;10.90;99.90
41630;DHT22;27322;49.488;8.480;2023-11-21T04:29:03;10.90;99.90
41630;DHT22;27322;49.488;8.480;2023-11-21T04:31:30;10.90;99.90
41630;DHT22;27322;49.488;8.480;2023-11-21T04:33:56;10.90;99.90
41630;DHT22;27322;49.488;8.480;2023-11-21T04:36:21;10.90;99.90
41630;DHT22;27322;49.488;8.480;2023-11-21T04:38:47;10.90;99.90
41630;DHT22;27322;49.488;8.480;2023-11-21T04:41:12;10.90;99.90
41630;DHT22;27322;49.488;8.480;2023-11-21T04:43:38;10.90;99.90
41630;DHT22;27322;49.488;8.480;2023-11-21T04:46:03;10.90;99.90
41630;DHT22;27322;49.488;8.480;2023-11-21T04:48:29;10.90;99.90
41630;DHT22;27322;49.488;8.480;2023-11-21T04:50:54;10.80;99.90
41630;DHT22;27322;49.488;8.480;2023-11-21T04:53:20;10.90;99.90
41630;DHT22;27322;49.488;8.480;2023-11-21T04:55:45;10.90;99.90
41630;DHT22;27322;49.488;8.480;2023-11-21T04:58:12;10.90;99.90
41630;DHT22;27322;49.488;8.480;2023-11-21T05:00:38;10.90;99.90
41630;DHT22;27322;49.488;8.480;2023-11-21T05:03:04;10.90;99.90
41630;DHT22;27322;49.488;8.480;2023-11-21T05:05:30;10.90;99.90
41630;DHT22;27322;49.488;8.480;2023-11-21T05:07:56;10.90;99.90
41630;DHT22;27322;49.488;8.480;2023-11-21T05:10:21;10.90;99.90
41630;DHT22;27322;49.488;8.480;2023-11-21T05:12:48;10.90;99.90
41630;DHT22;27322;49.488;8.480;2023-11-21T05:15:16;10.90;99.90
41630;DHT22;27322;49.488;8.480;2023-11-21T05:17:42;10.90;99.90
41630;DHT22;27322;49.488;8.480;2023-11-21T05:20:10;10.90;99.90
41630;DHT22;27322;49.488;8.480;2023-11-21T05:22:37;10.90;99.90
41630;DHT22;27322;49.488;8.480;2023-11-21T05:25:03;10.90;99.90
41630;DHT22;27322;49.488;8.480;2023-11-21T05:27:30;10.90;99.90
41630;DHT22;27322;49.488;8.480;2023-11-21T05:29:58;10.90;99.90
41630;DHT22;27322;49.488;8.480;2023-11-21T05:32:25;10.90;99.90
41630;DHT22;27322;49.488;8.480;2023-11-21T05:34:51;10.90;99.90
41630;DHT22;27322;49.488;8.480;2023-11-21T05:37:16;10.90;99.90
41630;DHT22;27322;49.488;8.480;2023-11-21T05:39:43;11.00;99.90
41630;DHT22;27322;49.488;8.480;2023-11-21T05:42:09;10.90;99.90
41630;DHT22;27322;49.488;8.480;2023-11-21T05:44:36;10.90;99.90
41630;DHT22;27322;49.488;8.480;2023-11-21T05:47:02;10.90;99.90
41630;DHT22;27322;49.488;8.480;2023-11-21T05:49:31;10.90;99.90
41630;DHT22;27322;49.488;8.480;2023-11-21T05:51:57;11.00;99.90
41630;DHT22;27322;49.488;8.480;2023-11-21T05:54:23;10.90;99.90
41630;DHT22;27322;49.488;8.480;2023-11-21T05:56:49;11.00;99.90
41630;DHT22;27322;49.488;8.480;2023-11-21T05:59:15;10.90;99.90
41630;DHT22;27322;49.488;8.480;2023-11-21T06:01:40;10.90;99.90
41630;DHT22;27322;49.488;8.480;2023-11-21T06:04:06;10.90;99.90
41630;DHT22;27322;49.488;8.480;2023-11-21T06:06:33;10.90;99.90
41630;DHT22;27322;49.488;8.480;2023-11-21T06:08:59;10.90;99.90
41630;DHT22;27322;49.488;8.480;2023-11-21T06:11:25;10.90;99.90
41630;DHT22;27322;49.488;8.480;2023-11-21T06:13:51;10.90;99.90
41630;DHT22;27322;49.488;8.480;2023-11-21T06:16:18;10.90;99.90
41630;DHT22;27322;49.488;8.480;2023-11-21T06:18:45;10.90;99.90
41630;DHT22;27322;49.488;8.480;2023-11-21T06:21:11;10.90;99.90
41630;DHT22;27322;49.488;8.480;2023-11-21T06:23:37;10.90;99.90
41630;DHT22;27322;49.488;8.480;2023-11-21T06:26:02;10.90;99.90
41630;DHT22;27322;49.488;8.480;2023-11-21T06:28:30;10.90;99.90
41630;DHT22;27322;49.488;8.480;2023-11-21T06:30:56;10.90;99.90
41630;DHT22;27322;49.488;8.480;2023-11-21T06:33:22;10.90;99.90
41630;DHT22;27322;49.488;8.480;2023-11-21T06:35:48;10.90;99.90
41630;DHT22;27322;49.488;8.480;2023-11-21T06:38:13;10.90;99.90
41630;DHT22;27322;49.488;8.480;2023-11-21T06:40:39;10.90;99.90
41630;DHT22;27322;49.488;8.480;2023-11-21T06:43:06;10.90;99.90
41630;DHT22;27322;49.488;8.480;2023-11-21T06:45:33;10.90;99.90
41630;DHT22;27322;49.488;8.480;2023-11-21T06:47:59;10.90;99.90
41630;DHT22;27322;49.488;8.480;2023-11-21T06:50:25;10.90;99.90
41630;DHT22;27322;49.488;8.480;2023-11-21T06:52:50;10.90;99.90
41630;DHT22;27322;49.488;8.480;2023-11-21T06:55:16;10.90;99.90
41630;DHT22;27322;49.488;8.480;2023-11-21T06:57:42;10.90;99.90
41630;DHT22;27322;49.488;8.480;2023-11-21T07:00:08;10.90;99.90
41630;DHT22;27322;49.488;8.480;2023-11-21T07:02:34;10.90;99.90
41630;DHT22;27322;49.488;8.480;2023-11-21T07:05:00;10.90;99.90
41630;DHT22;27322;49.488;8.480;2023-11-21T07:07:28;10.90;99.90
41630;DHT22;27322;49.488;8.480;2023-11-21T07:09:54;10.90;99.90
41630;DHT22;27322;49.488;8.480;2023-11-21T07:12:19;10.90;99.90
41630;DHT22;27322;49.488;8.480;2023-11-21T07:14:46;10.90;99.90
41630;DHT22;27322;49.488;8.480;2023-11-21T07:17:12;10.90;99.90
41630;DHT22;27322;49.488;8.480;2023-11-21T07:19:38;10.90;99.90
41630;DHT22;27322;49.488;8.480;2023-11-21T07:22:04;10.90;99.90
41630;DHT22;27322;49.488;8.480;2023-11-21T07:24:31;10.90;99.90
41630;DHT22;27322;49.488;8.480;2023-11-21T07:26:57;10.90;99.90
41630;DHT22;27322;49.488;8.480;2023-11-21T07:29:24;10.90;99.90
41630;DHT22;27322;49.488;8.480;2023-11-21T07:31:52;10.90;99.90
41630;DHT22;27322;49.488;8.480;2023-11-21T07:34:19;10.90;99.90
41630;DHT22;27322;49.488;8.480;2023-11-21T07:36:45;10.90;99.90
41630;DHT22;27322;49.488;8.480;2023-11-21T07:39:10;10.90;99.90
41630;DHT22;27322;49.488;8.480;2023-11-21T07:41:36;10.90;99.90
41630;DHT22;27322;49.488;8.480;2023-11-21T07:44:03;10.90;99.90
41630;DHT22;27322;49.488;8.480;2023-11-21T07:46:29;11.00;99.90
41630;DHT22;27322;49.488;8.480;2023-11-21T07:48:54;10.90;99.90
41630;DHT22;27322;49.488;8.480;2023-11-21T07:51:20;10.90;99.90
41630;DHT22;27322;49.488;8.480;2023-11-21T07:53:46;10.90;99.90
41630;DHT22;27322;49.488;8.480;2023-11-21T07:56:11;11.00;99.90
41630;DHT22;27322;49.488;8.480;2023-11-21T07:58:38;11.00;99.90
41630;DHT22;27322;49.488;8.480;2023-11-21T08:01:04;11.00;99.90
41630;DHT22;27322;49.488;8.480;2023-11-21T08:03:30;11.00;99.90
41630;DHT22;27322;49.488;8.480;2023-11-21T08:06:00;11.00;99.90
41630;DHT22;27322;49.488;8.480;2023-11-21T08:08:25;11.00;99.90
41630;DHT22;27322;49.488;8.480;2023-11-21T08:10:52;11.00;99.90
41630;DHT22;27322;49.488;8.480;2023-11-21T08:13:25;11.00;99.90
41630;DHT22;27322;49.488;8.480;2023-11-21T08:15:53;11.00;99.90
41630;DHT22;27322;49.488;8.480;2023-11-21T08:18:19;11.00;99.90
41630;DHT22;27322;49.488;8.480;2023-11-21T08:20:45;11.00;99.90
41630;DHT22;27322;49.488;8.480;2023-11-21T08:23:16;11.10;99.90
41630;DHT22;27322;49.488;8.480;2023-11-21T08:25:46;11.00;99.90
41630;DHT22;27322;49.488;8.480;2023-11-21T08:28:12;11.10;99.90
41630;DHT22;27322;49.488;8.480;2023-11-21T08:30:40;11.00;99.90
41630;DHT22;27322;49.488;8.480;2023-11-21T08:33:07;11.10;99.90
41630;DHT22;27322;49.488;8.480;2023-11-21T08:35:34;11.00;99.90
41630;DHT22;27322;49.488;8.480;2023-11-21T08:38:00;11.00;99.90
41630;DHT22;27322;49.488;8.480;2023-11-21T08:40:25;11.00;99.90
41630;DHT22;27322;49.488;8.480;2023-11-21T08:42:51;11.00;99.90
41630;DHT22;27322;49.488;8.480;2023-11-21T08:45:20;11.00;99.90
41630;DHT22;27322;49.488;8.480;2023-11-21T08:47:46;11.00;99.90
41630;DHT22;27322;49.488;8.480;2023-11-21T08:50:12;11.00;99.90
41630;DHT22;27322;49.488;8.480;2023-11-21T08:52:38;11.00;99.90
41630;DHT22;27322;49.488;8.480;2023-11-21T08:55:06;11.00;99.90
41630;DHT22;27322;49.488;8.480;2023-11-21T08:57:38;11.00;99.90
41630;DHT22;27322;49.488;8.480;2023-11-21T09:00:04;11.00;99.90
41630;DHT22;27322;49.488;8.480;2023-11-21T09:02:33;11.10;99.90
41630;DHT22;27322;49.488;8.480;2023-11-21T09:05:03;11.00;99.90
41630;DHT22;27322;49.488;8.480;2023-11-21T09:07:30;11.00;99.90
41630;DHT22;27322;49.488;8.480;2023-11-21T09:09:56;11.00;99.90
41630;DHT22;27322;49.488;8.480;2023-11-21T09:12:21;11.10;99.90
41630;DHT22;27322;49.488;8.480;2023-11-21T09:14:47;11.00;99.90
41630;DHT22;27322;49.488;8.480;2023-11-21T09:17:13;11.10;99.90
41630;DHT22;27322;49.488;8.480;2023-11-21T09:19:40;11.10;99.90
41630;DHT22;27322;49.488;8.480;2023-11-21T09:22:06;11.10;99.90
41630;DHT22;27322;49.488;8.480;2023-11-21T09:24:32;11.10;99.90
41630;DHT22;27322;49.488;8.480;2023-11-21T09:26:58;11.10;99.90
41630;DHT22;27322;49.488;8.480;2023-11-21T09:29:25;11.10;99.90
41630;DHT22;27322;49.488;8.480;2023-11-21T09:31:51;11.10;99.90
41630;DHT22;27322;49.488;8.480;2023-11-21T09:34:17;11.10;99.90
41630;DHT22;27322;49.488;8.480;2023-11-21T09:36:46;11.10;99.90
41630;DHT22;27322;49.488;8.480;2023-11-21T09:39:11;11.10;99.90
41630;DHT22;27322;49.488;8.480;2023-11-21T09:41:55;11.10;99.90
41630;DHT22;27322;49.488;8.480;2023-11-21T09:44:35;11.10;99.90
41630;DHT22;27322;49.488;8.480;2023-11-21T09:47:02;11.10;99.90
41630;DHT22;27322;49.488;8.480;2023-11-21T09:49:28;11.10;99.90
41630;DHT22;27322;49.488;8.480;2023-11-21T09:51:58;11.10;99.90
41630;DHT22;27322;49.488;8.480;2023-11-21T09:54:29;11.10;99.90
41630;DHT22;27322;49.488;8.480;2023-11-21T09:56:57;11.10;99.90
41630;DHT22;27322;49.488;8.480;2023-11-21T09:59:23;11.10;99.90
41630;DHT22;27322;49.488;8.480;2023-11-21T10:01:49;11.10;99.90
41630;DHT22;27322;49.488;8.480;2023-11-21T10:04:15;11.10;99.90
41630;DHT22;27322;49.488;8.480;2023-11-21T10:06:43;11.10;99.90
41630;DHT22;27322;49.488;8.480;2023-11-21T10:09:12;11.10;99.90
41630;DHT22;27322;49.488;8.480;2023-11-21T10:11:42;11.10;99.90
41630;DHT22;27322;49.488;8.480;2023-11-21T10:14:12;11.20;99.90
41630;DHT22;27322;49.488;8.480;2023-11-21T10:16:40;11.20;99.90
41630;DHT22;27322;49.488;8.480;2023-11-21T10:19:10;11.20;99.90
41630;DHT22;27322;49.488;8.480;2023-11-21T10:21:37;11.20;99.90
41630;DHT22;27322;49.488;8.480;2023-11-21T10:24:03;11.20;99.90
41630;DHT22;27322;49.488;8.480;2023-11-21T10:26:30;11.20;99.90
41630;DHT22;27322;49.488;8.480;2023-11-21T10:28:58;11.20;99.90
41630;DHT22;27322;49.488;8.480;2023-11-21T10:31:27;11.30;99.90
41630;DHT22;27322;49.488;8.480;2023-11-21T10:33:53;11.30;99.90
41630;DHT22;27322;49.488;8.480;2023-11-21T10:36:26;11.30;99.90
41630;DHT22;27322;49.488;8.480;2023-11-21T10:38:53;11.30;99.90
41630;DHT22;27322;49.488;8.480;2023-11-21T10:41:18;11.30;99.90
41630;DHT22;27322;49.488;8.480;2023-11-21T10:43:44;11.30;99.90
41630;DHT22;27322;49.488;8.480;2023-11-21T10:46:10;11.30;99.90
41630;DHT22;27322;49.488;8.480;2023-11-21T10:48:35;11.30;99.90
41630;DHT22;27322;49.488;8.480;2023-11-21T10:51:07;11.40;99.90
41630;DHT22;27322;49.488;8.480;2023-11-21T10:53:41;11.30;99.90
41630;DHT22;27322;49.488;8.480;2023-11-21T10:56:13;11.30;99.90
41630;DHT22;27322;49.488;8.480;2023-11-21T10:58:43;11.30;99.90
41630;DHT22;27322;49.488;8.480;2023-11-21T11:01:09;11.30;99.90
41630;DHT22;27322;49.488;8.480;2023-11-21T11:03:37;11.30;99.90
41630;DHT22;27322;49.488;8.480;2023-11-21T11:06:05;11.30;99.90
41630;DHT22;27322;49.488;8.480;2023-11-21T11:08:34;11.20;99.90
41630;DHT22;27322;49.488;8.480;2023-11-21T11:11:00;11.20;99.90
41630;DHT22;27322;49.488;8.480;2023-11-21T11:13:26;11.20;99.90
41630;DHT22;27322;49.488;8.480;2023-11-21T11:15:58;11.20;99.90
41630;DHT22;27322;49.488;8.480;2023-11-21T11:18:32;11.20;99.90
41630;DHT22;27322;49.488;8.480;2023-11-21T11:21:15;11.20;99.90
41630;DHT22;27322;49.488;8.480;2023-11-21T11:23:49;11.20;99.90
41630;DHT22;27322;49.488;8.480;2023-11-21T11:26:39;11.20;99.90
41630;DHT22;27322;49.488;8.480;2023-11-21T11:32:04;11.30;99.90
41630;DHT22;27322;49.488;8.480;2023-11-21T11:34:38;11.20;99.90
41630;DHT22;27322;49.488;8.480;2023-11-21T11:37:07;11.30;99.90
41630;DHT22;27322;49.488;8.480;2023-11-21T11:39:42;11.30;99.90
41630;DHT22;27322;49.488;8.480;2023-11-21T11:42:16;11.30;99.90
41630;DHT22;27322;49.488;8.480;2023-11-21T11:47:20;11.30;99.90
41630;DHT22;27322;49.488;8.480;2023-11-21T11:52:42;11.30;99.90
41630;DHT22;27322;49.488;8.480;2023-11-21T11:55:15;11.30;99.90
41630;DHT22;27322;49.488;8.480;2023-11-21T11:57:45;11.30;99.90
41630;DHT22;27322;49.488;8.480;2023-11-21T12:00:17;11.30;99.90
41630;DHT22;27322;49.488;8.480;2023-11-21T12:02:49;11.30;99.90
41630;DHT22;27322;49.488;8.480;2023-11-21T12:05:19;11.30;99.90
41630;DHT22;27322;49.488;8.480;2023-11-21T12:07:47;11.30;99.90
41630;DHT22;27322;49.488;8.480;2023-11-21T12:10:17;11.30;99.90
41630;DHT22;27322;49.488;8.480;2023-11-21T12:12:51;11.40;99.90
41630;DHT22;27322;49.488;8.480;2023-11-21T12:15:18;11.40;99.90
41630;DHT22;27322;49.488;8.480;2023-11-21T12:17:45;11.40;99.90
41630;DHT22;27322;49.488;8.480;2023-11-21T12:20:15;11.40;99.90
41630;DHT22;27322;49.488;8.480;2023-11-21T12:22:53;11.40;99.90
41630;DHT22;27322;49.488;8.480;2023-11-21T12:25:21;11.40;99.90
41630;DHT22;27322;49.488;8.480;2023-11-21T12:27:49;11.40;99.90
41630;DHT22;27322;49.488;8.480;2023-11-21T12:30:19;11.40;99.90
41630;DHT22;27322;49.488;8.480;2023-11-21T12:32:48;11.50;99.90
41630;DHT22;27322;49.488;8.480;2023-11-21T12:35:15;11.50;99.90
41630;DHT22;27322;49.488;8.480;2023-11-21T12:37:41;11.50;99.90
41630;DHT22;27322;49.488;8.480;2023-11-21T12:40:11;11.50;99.90
41630;DHT22;27322;49.488;8.480;2023-11-21T12:42:41;11.50;99.90
41630;DHT22;27322;49.488;8.480;2023-11-21T12:45:20;11.50;99.90
41630;DHT22;27322;49.488;8.480;2023-11-21T12:50:11;11.60;99.90
41630;DHT22;27322;49.488;8.480;2023-11-21T12:52:53;11.60;99.90
41630;DHT22;27322;49.488;8.480;2023-11-21T12:55:22;11.60;99.90
41630;DHT22;27322;49.488;8.480;2023-11-21T12:57:49;11.60;99.90
41630;DHT22;27322;49.488;8.480;2023-11-21T13:00:18;11.60;99.90
41630;DHT22;27322;49.488;8.480;2023-11-21T13:02:54;11.60;99.90
41630;DHT22;27322;49.488;8.480;2023-11-21T13:05:28;11.60;99.90
41630;DHT22;27322;49.488;8.480;2023-11-21T13:07:59;11.60;99.90
41630;DHT22;27322;49.488;8.480;2023-11-21T13:10:27;11.60;99.90
41630;DHT22;27322;49.488;8.480;2023-11-21T13:13:04;11.70;99.90
41630;DHT22;27322;49.488;8.480;2023-11-21T13:15:31;11.60;99.90
41630;DHT22;27322;49.488;8.480;2023-11-21T13:17:58;11.70;99.90
41630;DHT22;27322;49.488;8.480;2023-11-21T13:20:25;11.70;99.90
41630;DHT22;27322;49.488;8.480;2023-11-21T13:22:57;11.70;99.90
41630;DHT22;27322;49.488;8.480;2023-11-21T13:25:25;11.70;99.90
41630;DHT22;27322;49.488;8.480;2023-11-21T13:27:57;11.70;99.90
41630;DHT22;27322;49.488;8.480;2023-11-21T13:30:24;11.70;99.90
41630;DHT22;27322;49.488;8.480;2023-11-21T13:32:56;11.70;99.90
41630;DHT22;27322;49.488;8.480;2023-11-21T13:35:23;11.70;99.90
41630;DHT22;27322;49.488;8.480;2023-11-21T13:38:04;11.70;99.90
41630;DHT22;27322;49.488;8.480;2023-11-21T13:40:32;11.70;99.90
41630;DHT22;27322;49.488;8.480;2023-11-21T13:43:00;11.70;99.90
41630;DHT22;27322;49.488;8.480;2023-11-21T13:45:29;11.70;99.90
41630;DHT22;27322;49.488;8.480;2023-11-21T13:47:56;11.70;99.90
41630;DHT22;27322;49.488;8.480;2023-11-21T13:50:25;11.70;99.90
41630;DHT22;27322;49.488;8.480;2023-11-21T13:52:58;11.70;99.90
41630;DHT22;27322;49.488;8.480;2023-11-21T13:55:29;11.70;99.90
41630;DHT22;27322;49.488;8.480;2023-11-21T13:57:55;11.80;99.90
41630;DHT22;27322;49.488;8.480;2023-11-21T14:00:20;11.70;99.90
41630;DHT22;27322;49.488;8.480;2023-11-21T14:03:04;11.70;99.90
41630;DHT22;27322;49.488;8.480;2023-11-21T14:05:35;11.70;99.90
41630;DHT22;27322;49.488;8.480;2023-11-21T14:08:01;11.70;99.90
41630;DHT22;27322;49.488;8.480;2023-11-21T14:10:31;11.70;99.90
41630;DHT22;27322;49.488;8.480;2023-11-21T14:13:08;11.70;99.90
41630;DHT22;27322;49.488;8.480;2023-11-21T14:15:36;11.70;99.90
41630;DHT22;27322;49.488;8.480;2023-11-21T14:18:07;11.70;99.90
41630;DHT22;27322;49.488;8.480;2023-11-21T14:20:38;11.70;99.90
41630;DHT22;27322;49.488;8.480;2023-11-21T14:23:05;11.70;99.90
41630;DHT22;27322;49.488;8.480;2023-11-21T14:25:33;11.70;99.90
41630;DHT22;27322;49.488;8.480;2023-11-21T14:28:00;11.70;99.90
41630;DHT22;27322;49.488;8.480;2023-11-21T14:30:26;11.70;99.90
41630;DHT22;27322;49.488;8.480;2023-11-21T14:32:52;11.60;99.90
41630;DHT22;27322;49.488;8.480;2023-11-21T14:35:18;11.60;99.90
41630;DHT22;27322;49.488;8.480;2023-11-21T14:37:44;11.70;99.90
41630;DHT22;27322;49.488;8.480;2023-11-21T14:40:12;11.60;99.90
41630;DHT22;27322;49.488;8.480;2023-11-21T14:42:37;11.60;99.90
41630;DHT22;27322;49.488;8.480;2023-11-21T14:45:05;11.60;99.90
41630;DHT22;27322;49.488;8.480;2023-11-21T14:47:32;11.60;99.90
41630;DHT22;27322;49.488;8.480;2023-11-21T14:50:02;11.60;99.90
41630;DHT22;27322;49.488;8.480;2023-11-21T14:52:47;11.60;99.90
41630;DHT22;27322;49.488;8.480;2023-11-21T14:55:24;11.60;99.90
41630;DHT22;27322;49.488;8.480;2023-11-21T14:57:50;11.60;99.90
41630;DHT22;27322;49.488;8.480;2023-11-21T15:00:20;11.60;99.90
41630;DHT22;27322;49.488;8.480;2023-11-21T15:03:03;11.60;99.90
41630;DHT22;27322;49.488;8.480;2023-11-21T15:05:29;11.60;99.90
41630;DHT22;27322;49.488;8.480;2023-11-21T15:07:55;11.60;99.90
41630;DHT22;27322;49.488;8.480;2023-11-21T15:10:24;11.60;99.90
41630;DHT22;27322;49.488;8.480;2023-11-21T15:13:11;11.60;99.90
41630;DHT22;27322;49.488;8.480;2023-11-21T15:15:37;11.60;99.90
41630;DHT22;27322;49.488;8.480;2023-11-21T15:18:03;11.60;99.90
41630;DHT22;27322;49.488;8.480;2023-11-21T15:20:29;11.60;99.90
41630;DHT22;27322;49.488;8.480;2023-11-21T15:22:55;11.60;99.90
41630;DHT22;27322;49.488;8.480;2023-11-21T15:25:21;11.60;99.90
41630;DHT22;27322;49.488;8.480;2023-11-21T15:27:47;11.60;99.90
41630;DHT22;27322;49.488;8.480;2023-11-21T15:30:16;11.60;99.90
41630;DHT22;27322;49.488;8.480;2023-11-21T15:32:44;11.50;99.90
41630;DHT22;27322;49.488;8.480;2023-11-21T15:35:10;11.50;99.90
41630;DHT22;27322;49.488;8.480;2023-11-21T15:37:39;11.60;99.90
41630;DHT22;27322;49.488;8.480;2023-11-21T15:40:05;11.50;99.90
41630;DHT22;27322;49.488;8.480;2023-11-21T15:42:31;11.50;99.90
41630;DHT22;27322;49.488;8.480;2023-11-21T15:44:57;11.50;99.90